Time;durP1;ratioP1;P1;durP2;ratioP2;P2;SDS_P1;SDS_P2;PMS_P1;PMS_P2;Temp;Humidity;BMP_temperature;BMP_pressure;BME280_temperature;BME280_humidity;BME280_pressure;Samples;Min_cycle;Max_cycle;Signal;HPM_P1;HPM_P2
2022/04/29 07:30:31;;;;;;;;;7.75;7.00;;;;;;;;5110113;27;1452832;-74
2022/04/29 07:32:57;;;;;;;;;10.00;10.00;;;;;;;;5144940;27;20657;-74
2022/04/29 07:43:35;;;;;;;;;7.00;6.00;;;;;;;;5143827;27;22203;-69
2022/04/29 07:46:01;;;;;;;;;11.00;10.25;;;;;;;;5144159;27;22795;-71
2022/04/29 07:48:26;;;;;;;;;10.50;10.50;;;;;;;;5144759;27;22545;-69
2022/04/29 07:50:51;;;;;;;;;7.00;7.00;;;;;;;;5143172;27;11425;-69
2022/04/29 07:53:17;;;;;;;;;8.75;8.75;;;;;;;;5146346;27;23507;-71
2022/04/29 07:55:43;;;;;;;;;12.50;8.50;;;;;;;;5109788;27;11977;-71
2022/04/29 07:58:09;;;;;;;;;9.00;9.00;;;;;;;;5143301;27;21891;-75
2022/04/29 08:00:37;;;;;;;;;8.50;8.50;;;;;;;;5145687;27;21551;-73
2022/04/29 08:03:02;;;;;;;;;6.00;6.00;;;;;;;;5146837;27;11683;-74
2022/04/29 08:05:28;;;;;;;;;7.00;7.00;;;;;;;;5144504;27;11421;-73
2022/04/29 08:07:55;;;;;;;;;10.50;8.25;;;;;;;;5146694;27;8778;-73
2022/04/29 08:10:21;;;;;;;;;9.00;8.00;;;;;;;;5126436;27;21870;-73
2022/04/29 08:12:47;;;;;;;;;12.00;10.00;;;;;;;;5143556;27;22461;-75
2022/04/29 08:15:12;;;;;;;;;7.67;7.67;;;;;;;;5146660;27;22893;-72
2022/04/29 08:17:39;;;;;;;;;8.00;8.00;;;;;;;;5140802;27;22451;-74
2022/04/29 08:20:04;;;;;;;;;6.75;6.75;;;;;;;;5136131;27;11430;-73
2022/04/29 08:22:30;;;;;;;;;9.33;7.00;;;;;;;;5135818;27;11318;-74
2022/04/29 08:24:55;;;;;;;;;5.33;5.33;;;;;;;;5117335;27;13341;-71
2022/04/29 08:27:21;;;;;;;;;6.00;6.00;;;;;;;;5117622;27;13334;-74
2022/04/29 08:29:47;;;;;;;;;5.00;5.00;;;;;;;;5150259;27;11574;-72
2022/04/29 08:32:12;;;;;;;;;21.67;17.67;;;;;;;;5138175;27;8882;-70
2022/04/29 08:34:37;;;;;;;;;12.33;11.67;;;;;;;;5156788;27;22520;-70
2022/04/29 08:37:04;;;;;;;;;15.67;13.00;;;;;;;;5156732;27;12705;-70
2022/04/29 08:39:30;;;;;;;;;12.75;12.50;;;;;;;;5156989;27;11668;-71
2022/04/29 08:41:56;;;;;;;;;10.25;10.00;;;;;;;;5142469;27;11637;-71
2022/04/29 08:44:24;;;;;;;;;7.25;6.00;;;;;;;;5141590;27;12878;-71
2022/04/29 08:46:50;;;;;;;;;4.75;4.75;;;;;;;;5142408;27;22321;-71
2022/04/29 08:49:16;;;;;;;;;6.67;6.67;;;;;;;;5142451;27;11305;-71
2022/04/29 08:51:41;;;;;;;;;7.67;7.00;;;;;;;;5142600;27;11266;-72
2022/04/29 08:54:06;;;;;;;;;8.00;8.00;;;;;;;;5142408;27;11301;-71
2022/04/29 08:59:19;;;;;;;;;12.00;12.00;;;;;;;;5143028;27;12302;-71
2022/04/29 09:01:44;;;;;;;;;11.00;9.33;;;;;;;;5142666;27;22303;-71
2022/04/29 09:04:10;;;;;;;;;9.00;7.00;;;;;;;;5143029;27;21533;-71
2022/04/29 09:06:45;;;;;;;;;5.00;5.00;;;;;;;;5142423;27;21351;-72
2022/04/29 09:09:11;;;;;;;;;5.50;5.50;;;;;;;;5142885;27;8810;-71
2022/04/29 09:11:37;;;;;;;;;8.25;7.00;;;;;;;;5142851;27;8759;-72
2022/04/29 09:14:21;;;;;;;;;6.00;6.00;;;;;;;;5142373;27;11359;-71
2022/04/29 09:16:48;;;;;;;;;10.25;10.25;;;;;;;;5124136;27;12445;-71
2022/04/29 09:19:34;;;;;;;;;9.00;9.00;;;;;;;;5141561;27;22438;-71
2022/04/29 09:22:07;;;;;;;;;10.25;10.25;;;;;;;;5141693;27;22388;-70
2022/04/29 09:24:33;;;;;;;;;5.25;5.25;;;;;;;;5141770;27;23467;-71
2022/04/29 09:27:03;;;;;;;;;9.00;8.00;;;;;;;;5139551;27;23613;-70
2022/04/29 09:29:29;;;;;;;;;12.75;11.75;;;;;;;;5141520;27;11948;-70
2022/04/29 09:31:56;;;;;;;;;6.33;6.33;;;;;;;;5122683;27;25999;-72
2022/04/29 09:34:21;;;;;;;;;6.50;5.75;;;;;;;;5142505;27;22313;-71
2022/04/29 09:36:47;;;;;;;;;7.67;7.67;;;;;;;;5123623;27;11698;-71
2022/04/29 09:39:27;;;;;;;;;9.33;7.33;;;;;;;;5141945;27;11823;-71
2022/04/29 09:41:57;;;;;;;;;10.25;10.25;;;;;;;;5141688;27;11371;-69
2022/04/29 09:44:40;;;;;;;;;13.25;12.50;;;;;;;;5142225;27;22294;-69
2022/04/29 09:47:13;;;;;;;;;10.00;10.00;;;;;;;;5123714;27;11464;-70
2022/04/29 09:49:39;;;;;;;;;11.00;11.00;;;;;;;;5140924;27;12753;-70
2022/04/29 09:52:04;;;;;;;;;9.00;8.00;;;;;;;;5140428;27;8842;-70
2022/04/29 09:54:31;;;;;;;;;8.00;8.00;;;;;;;;5141024;27;22191;-69
2022/04/29 09:57:16;;;;;;;;;9.25;9.25;;;;;;;;5141840;27;8782;-69
2022/04/29 09:59:45;;;;;;;;;8.00;5.75;;;;;;;;5141690;27;11534;-72
2022/04/29 10:02:12;;;;;;;;;3.25;3.25;;;;;;;;5123744;27;12535;-72
2022/04/29 10:04:41;;;;;;;;;7.00;7.00;;;;;;;;5141878;27;11442;-73
2022/04/29 10:07:07;;;;;;;;;6.00;6.00;;;;;;;;5142413;27;11557;-72
2022/04/29 10:09:34;;;;;;;;;7.75;5.75;;;;;;;;5140692;27;8818;-72
2022/04/29 10:12:03;;;;;;;;;5.25;5.25;;;;;;;;5141584;27;11383;-72
2022/04/29 10:14:29;;;;;;;;;6.75;6.75;;;;;;;;5141885;27;10337;-72
2022/04/29 10:22:32;;;;;;;;;8.33;7.67;;;;;;;;5141167;27;11360;-71
2022/04/29 10:24:57;;;;;;;;;6.00;6.00;;;;;;;;5132799;27;12698;-72
2022/04/29 10:27:23;;;;;;;;;6.00;6.00;;;;;;;;5131195;27;11615;-73
2022/04/29 10:29:48;;;;;;;;;6.33;6.33;;;;;;;;5128352;27;9623;-73
2022/04/29 10:32:14;;;;;;;;;8.33;6.33;;;;;;;;5129738;27;8898;-72
2022/04/29 10:34:39;;;;;;;;;7.67;7.00;;;;;;;;5130235;27;8966;-72
2022/04/29 10:37:10;;;;;;;;;8.00;6.00;;;;;;;;5128268;27;11820;-74
2022/04/29 10:39:35;;;;;;;;;9.33;7.67;;;;;;;;5129019;27;10833;-72
2022/04/29 10:42:06;;;;;;;;;6.00;6.00;;;;;;;;5129447;27;11281;-73
2022/04/29 10:44:31;;;;;;;;;6.67;6.67;;;;;;;;5129571;27;11441;-73
2022/04/29 10:47:10;;;;;;;;;6.33;6.33;;;;;;;;5129174;27;9411;-72
2022/04/29 10:49:36;;;;;;;;;7.75;7.75;;;;;;;;5128166;27;8811;-73
2022/04/29 10:52:03;;;;;;;;;6.00;5.67;;;;;;;;5128192;27;10421;-72
2022/04/29 10:54:36;;;;;;;;;8.00;7.25;;;;;;;;5130030;27;12123;-72
2022/04/29 10:57:02;;;;;;;;;8.75;8.00;;;;;;;;5129578;27;11653;-71
2022/04/29 10:59:28;;;;;;;;;8.25;8.25;;;;;;;;5128253;27;10540;-71
2022/04/29 11:02:23;;;;;;;;;7.00;7.00;;;;;;;;5128549;27;9425;-72
2022/04/29 11:04:48;;;;;;;;;7.00;7.00;;;;;;;;5109075;27;12246;-72
2022/04/29 11:07:46;;;;;;;;;10.25;9.00;;;;;;;;5114293;27;9416;-72
2022/04/29 11:10:22;;;;;;;;;11.75;11.75;;;;;;;;5035977;28;21680;-72
2022/04/29 11:13:13;;;;;;;;;10.00;10.00;;;;;;;;5035683;28;22547;-72
2022/04/29 11:15:42;;;;;;;;;11.00;11.00;;;;;;;;5019970;28;11507;-73
2022/04/29 11:18:14;;;;;;;;;11.00;10.00;;;;;;;;5026246;28;9842;-75
2022/04/29 11:20:42;;;;;;;;;11.50;9.50;;;;;;;;5097774;28;9808;-74
2022/04/29 11:25:56;;;;;;;;;8.50;8.50;;;;;;;;5119139;28;21340;-72
2022/04/29 11:28:22;;;;;;;;;9.00;8.50;;;;;;;;5119368;28;9885;-75
2022/04/29 11:30:48;;;;;;;;;9.75;7.75;;;;;;;;5103588;28;9719;-74
2022/04/29 11:33:14;;;;;;;;;8.25;4.75;;;;;;;;5125360;27;10856;-74
2022/04/29 11:35:39;;;;;;;;;8.00;8.00;;;;;;;;5119854;28;9630;-75
2022/04/29 11:38:07;;;;;;;;;7.50;7.50;;;;;;;;5104236;28;12307;-73
2022/04/29 11:40:36;;;;;;;;;6.75;6.75;;;;;;;;5119064;28;13113;-73
2022/04/29 11:43:05;;;;;;;;;8.00;7.50;;;;;;;;5118802;28;11390;-73
2022/04/29 11:45:30;;;;;;;;;7.75;7.00;;;;;;;;5126693;27;11597;-72
2022/04/29 11:48:05;;;;;;;;;7.75;6.00;;;;;;;;5126297;27;11498;-72
2022/04/29 11:50:32;;;;;;;;;6.00;5.25;;;;;;;;5130910;27;9786;-72
2022/04/29 11:53:07;;;;;;;;;5.75;5.75;;;;;;;;5128627;27;11649;-71
2022/04/29 11:55:33;;;;;;;;;6.00;6.00;;;;;;;;5129841;27;10443;-72
2022/04/29 11:57:58;;;;;;;;;5.00;5.00;;;;;;;;5128313;27;12079;-72
2022/04/29 12:00:25;;;;;;;;;6.25;6.00;;;;;;;;5120958;27;10955;-67
2022/04/29 12:02:51;;;;;;;;;5.00;4.25;;;;;;;;5140615;27;10591;-72
2022/04/29 12:05:16;;;;;;;;;4.50;4.50;;;;;;;;5121943;27;11685;-73
2022/04/29 12:07:43;;;;;;;;;5.25;5.25;;;;;;;;5140237;27;12681;-71
2022/04/29 12:10:14;;;;;;;;;5.75;5.75;;;;;;;;5138023;27;11628;-72
2022/04/29 12:12:40;;;;;;;;;6.00;6.00;;;;;;;;5135703;27;9783;-72
2022/04/29 12:15:08;;;;;;;;;7.00;5.00;;;;;;;;5119375;27;11765;-72
2022/04/29 12:17:35;;;;;;;;;5.00;5.00;;;;;;;;5128454;27;8778;-82
2022/04/29 12:20:01;;;;;;;;;4.00;4.00;;;;;;;;5130776;27;9926;-76
2022/04/29 12:22:27;;;;;;;;;6.25;5.75;;;;;;;;5110553;27;11640;-75
2022/04/29 12:24:53;;;;;;;;;5.75;5.75;;;;;;;;5131893;27;11390;-78
2022/04/29 12:27:27;;;;;;;;;5.25;5.00;;;;;;;;5130303;27;10028;-77
2022/04/29 12:34:48;;;;;;;;;6.00;5.50;;;;;;;;5129301;27;8834;-72
2022/04/29 12:35:26;;;;;;;;;6.25;5.50;;;;;;;;5131624;27;11605;-78
2022/04/29 12:37:53;;;;;;;;;5.75;5.75;;;;;;;;5129825;27;11300;-78
2022/04/29 12:40:25;;;;;;;;;6.50;6.50;;;;;;;;5130525;27;11866;-78
2022/04/29 12:42:50;;;;;;;;;6.00;6.00;;;;;;;;5131662;27;13039;-78
2022/04/29 12:45:24;;;;;;;;;3.00;3.00;;;;;;;;5130644;27;10060;-79
2022/04/29 12:47:54;;;;;;;;;4.50;4.50;;;;;;;;5142586;27;9836;-80
2022/04/29 12:50:24;;;;;;;;;6.00;4.00;;;;;;;;5142520;27;11399;-76
2022/04/29 12:52:49;;;;;;;;;5.75;5.75;;;;;;;;5142908;27;11582;-78
2022/04/29 12:55:15;;;;;;;;;6.75;6.25;;;;;;;;5122188;27;14535;-80
2022/04/29 12:57:41;;;;;;;;;5.50;5.50;;;;;;;;5142384;27;10459;-75
2022/04/29 13:00:08;;;;;;;;;4.00;3.00;;;;;;;;5142308;27;11520;-79
2022/04/29 13:02:33;;;;;;;;;5.00;5.00;;;;;;;;5141956;27;11429;-78
2022/04/29 13:04:58;;;;;;;;;5.00;5.00;;;;;;;;5118021;27;10234;-79
2022/04/29 13:07:24;;;;;;;;;4.25;4.25;;;;;;;;5112306;27;8802;-78
2022/04/29 13:09:49;;;;;;;;;6.50;5.50;;;;;;;;5113426;27;13554;-78
2022/04/29 13:12:15;;;;;;;;;5.00;3.75;;;;;;;;5131063;27;11512;-79
2022/04/29 13:14:40;;;;;;;;;5.00;5.00;;;;;;;;5131273;27;12725;-78
2022/04/29 13:17:06;;;;;;;;;6.75;5.75;;;;;;;;5132099;27;10088;-78
2022/04/29 13:19:31;;;;;;;;;7.00;5.50;;;;;;;;5130375;27;11474;-78
2022/04/29 13:21:56;;;;;;;;;8.25;7.00;;;;;;;;5133145;27;11279;-79
2022/04/29 13:24:22;;;;;;;;;5.00;5.00;;;;;;;;5135684;27;11311;-78
2022/04/29 13:26:47;;;;;;;;;5.25;5.25;;;;;;;;5121178;28;10682;-80
2022/04/29 13:29:14;;;;;;;;;8.25;6.00;;;;;;;;5120644;28;9841;-78
2022/04/29 13:31:40;;;;;;;;;5.00;5.00;;;;;;;;5120008;27;11554;-75
2022/04/29 13:34:05;;;;;;;;;7.00;5.50;;;;;;;;5121083;27;10743;-80
2022/04/29 13:36:30;;;;;;;;;6.00;5.50;;;;;;;;5121473;28;11310;-73
2022/04/29 13:38:56;;;;;;;;;5.75;4.25;;;;;;;;5121239;27;8877;-75
2022/04/29 13:41:21;;;;;;;;;6.00;6.00;;;;;;;;5140941;27;11346;-74
2022/04/29 13:43:46;;;;;;;;;4.00;4.00;;;;;;;;5085892;27;11465;-75
2022/04/29 13:46:12;;;;;;;;;4.75;4.75;;;;;;;;5089605;28;9445;-75
2022/04/29 13:48:38;;;;;;;;;6.00;4.50;;;;;;;;5100260;28;8929;-73
2022/04/29 13:51:03;;;;;;;;;5.00;5.00;;;;;;;;5100077;28;11347;-75
2022/04/29 13:53:28;;;;;;;;;5.00;5.00;;;;;;;;5100001;28;12445;-74
2022/04/29 13:55:54;;;;;;;;;5.00;5.00;;;;;;;;5100561;28;8934;-73
2022/04/29 13:58:22;;;;;;;;;4.75;4.75;;;;;;;;5100195;28;9014;-73
2022/04/29 14:00:49;;;;;;;;;5.00;4.00;;;;;;;;5099393;28;12646;-73
2022/04/29 14:03:15;;;;;;;;;6.75;6.25;;;;;;;;5099964;28;11392;-73
2022/04/29 14:05:40;;;;;;;;;4.00;4.00;;;;;;;;5100540;28;11608;-78
2022/04/29 14:10:50;;;;;;;;;5.25;5.25;;;;;;;;5171114;27;79427;-79
2022/04/29 14:13:18;;;;;;;;;6.75;5.75;;;;;;;;5157220;27;22026;-79
2022/04/29 14:15:43;;;;;;;;;2.75;2.75;;;;;;;;5156971;27;10708;-80
2022/04/29 14:18:09;;;;;;;;;7.25;5.00;;;;;;;;5157069;27;10107;-80
2022/04/29 14:20:35;;;;;;;;;5.00;5.00;;;;;;;;5158019;27;11506;-80
2022/04/29 14:23:00;;;;;;;;;5.00;5.00;;;;;;;;5158163;27;10143;-81
2022/04/29 14:25:26;;;;;;;;;5.50;5.00;;;;;;;;5157815;27;8831;-80
2022/04/29 14:27:51;;;;;;;;;4.00;4.00;;;;;;;;5157573;27;8859;-80
2022/04/29 14:30:18;;;;;;;;;4.00;4.00;;;;;;;;5157263;27;10275;-79
2022/04/29 14:32:43;;;;;;;;;4.50;4.50;;;;;;;;5157448;27;8768;-82
2022/04/29 14:35:09;;;;;;;;;5.25;5.00;;;;;;;;5157096;27;10318;-81
2022/04/29 14:37:35;;;;;;;;;4.00;4.00;;;;;;;;5157666;27;12146;-80
2022/04/29 14:40:04;;;;;;;;;4.75;4.75;;;;;;;;5158370;27;10287;-80
2022/04/29 14:42:30;;;;;;;;;5.50;5.25;;;;;;;;5156548;27;8890;-81
2022/04/29 14:44:55;;;;;;;;;4.50;4.50;;;;;;;;5157371;27;10523;-80
2022/04/29 14:47:20;;;;;;;;;5.50;5.50;;;;;;;;5150737;27;11726;-78
2022/04/29 14:49:46;;;;;;;;;6.00;4.50;;;;;;;;5158145;27;8939;-81
2022/04/29 14:52:11;;;;;;;;;4.50;4.00;;;;;;;;5155601;27;11064;-81
2022/04/29 14:54:39;;;;;;;;;4.50;4.50;;;;;;;;5143962;27;11454;-79
2022/04/29 14:57:20;;;;;;;;;4.75;4.75;;;;;;;;5146783;27;8771;-75
2022/04/29 14:59:45;;;;;;;;;4.00;4.00;;;;;;;;5143647;27;10234;-76
2022/04/29 15:02:10;;;;;;;;;5.00;5.00;;;;;;;;5145511;27;10197;-69
2022/04/29 15:04:36;;;;;;;;;4.00;3.00;;;;;;;;5143942;27;8818;-67
2022/04/29 15:07:02;;;;;;;;;6.00;4.00;;;;;;;;5141530;27;8846;-67
2022/04/29 15:17:39;;;;;;;;;4.25;4.00;;;;;;;;5144123;27;12409;-69
2022/04/29 15:20:04;;;;;;;;;4.25;4.25;;;;;;;;5141103;27;11789;-68
2022/04/29 15:22:30;;;;;;;;;5.00;3.25;;;;;;;;5131769;27;8837;-68
2022/04/29 15:24:55;;;;;;;;;3.50;3.50;;;;;;;;5131943;27;10508;-68
2022/04/29 15:27:21;;;;;;;;;4.25;4.25;;;;;;;;5130648;27;11401;-67
2022/04/29 15:29:47;;;;;;;;;6.00;4.00;;;;;;;;5132186;27;11309;-65
2022/04/29 15:32:12;;;;;;;;;5.25;5.25;;;;;;;;5129935;27;11883;-67
2022/04/29 15:34:38;;;;;;;;;6.00;5.00;;;;;;;;5130553;27;11393;-66
2022/04/29 15:37:04;;;;;;;;;5.50;4.50;;;;;;;;5131217;27;11353;-67
2022/04/29 15:39:30;;;;;;;;;6.75;3.75;;;;;;;;5130577;27;12553;-69
2022/04/29 15:41:58;;;;;;;;;4.00;4.00;;;;;;;;5131310;27;11390;-66
2022/04/29 15:44:23;;;;;;;;;5.50;5.50;;;;;;;;5129381;27;11683;-67
2022/04/29 15:46:48;;;;;;;;;4.00;3.00;;;;;;;;5130378;27;11449;-67
2022/04/29 15:49:14;;;;;;;;;3.50;3.00;;;;;;;;5131496;27;12709;-66
2022/04/29 15:51:39;;;;;;;;;3.00;3.00;;;;;;;;5123304;27;8865;-68
2022/04/29 15:54:04;;;;;;;;;4.25;4.00;;;;;;;;5120118;27;8779;-68
2022/04/29 15:56:34;;;;;;;;;3.00;3.00;;;;;;;;5120249;27;10284;-67
2022/04/29 15:58:59;;;;;;;;;2.00;2.00;;;;;;;;5118871;28;12432;-68
2022/04/29 16:01:26;;;;;;;;;3.75;3.75;;;;;;;;5120364;27;10291;-67
2022/04/29 16:03:51;;;;;;;;;3.75;3.75;;;;;;;;5119773;27;11811;-66
2022/04/29 16:06:17;;;;;;;;;3.00;3.00;;;;;;;;5120240;27;10274;-66
2022/04/29 16:08:42;;;;;;;;;4.00;3.25;;;;;;;;5120017;27;9588;-69
2022/04/29 16:11:07;;;;;;;;;3.75;3.50;;;;;;;;5120285;27;11731;-68
2022/04/29 16:13:32;;;;;;;;;2.00;2.00;;;;;;;;5120133;27;11867;-69
2022/04/29 16:15:58;;;;;;;;;5.00;4.00;;;;;;;;5118901;28;11653;-69
2022/04/29 16:21:09;;;;;;;;;4.00;3.00;;;;;;;;5121007;28;8759;-68
2022/04/29 16:26:18;;;;;;;;;4.00;3.50;;;;;;;;5120544;28;10513;-69
2022/04/29 16:28:43;;;;;;;;;3.75;3.75;;;;;;;;5119959;27;11478;-69
2022/04/29 16:31:09;;;;;;;;;4.75;4.00;;;;;;;;5120001;27;12629;-70
2022/04/29 16:33:35;;;;;;;;;1.50;1.00;;;;;;;;5119012;27;12395;-71
2022/04/29 16:36:00;;;;;;;;;4.25;4.00;;;;;;;;5120810;27;10553;-69
2022/04/29 16:38:26;;;;;;;;;3.00;3.00;;;;;;;;5120590;27;11070;-69
2022/04/29 16:40:52;;;;;;;;;4.00;4.00;;;;;;;;5120564;27;10378;-68
2022/04/29 16:43:19;;;;;;;;;3.00;2.50;;;;;;;;5119397;27;11291;-69
2022/04/29 16:45:46;;;;;;;;;3.50;3.50;;;;;;;;5116323;27;11603;-70
2022/04/29 16:48:11;;;;;;;;;2.00;2.00;;;;;;;;5120296;27;10355;-69
2022/04/29 16:50:37;;;;;;;;;2.00;2.00;;;;;;;;5120075;27;12189;-70
2022/04/29 16:53:03;;;;;;;;;2.50;2.50;;;;;;;;5120223;27;8778;-68
2022/04/29 16:55:28;;;;;;;;;4.00;3.00;;;;;;;;5120085;27;8774;-69
2022/04/29 17:00:38;;;;;;;;;2.50;2.50;;;;;;;;5120192;28;8831;-70
2022/04/29 17:03:05;;;;;;;;;3.00;3.00;;;;;;;;5119927;27;11375;-71
2022/04/29 17:05:30;;;;;;;;;3.00;3.00;;;;;;;;5120092;27;12589;-69
2022/04/29 17:07:56;;;;;;;;;2.25;2.25;;;;;;;;5119654;27;10403;-69
2022/04/29 17:10:21;;;;;;;;;3.25;3.00;;;;;;;;5123890;27;11492;-68
2022/04/29 17:12:46;;;;;;;;;4.00;3.00;;;;;;;;5138969;27;11308;-70
2022/04/29 17:15:11;;;;;;;;;5.00;3.00;;;;;;;;5138987;27;8943;-70
2022/04/29 17:17:37;;;;;;;;;4.00;2.75;;;;;;;;5136441;27;8824;-70
2022/04/29 17:20:03;;;;;;;;;3.75;3.00;;;;;;;;5138011;27;11534;-70
2022/04/29 17:22:28;;;;;;;;;4.50;4.50;;;;;;;;5138268;27;11297;-69
2022/04/29 17:24:54;;;;;;;;;2.75;2.75;;;;;;;;5137546;27;11762;-69
2022/04/29 17:27:21;;;;;;;;;4.50;2.25;;;;;;;;5138697;27;11361;-68
2022/04/29 17:29:47;;;;;;;;;2.00;2.00;;;;;;;;5138463;27;10354;-68
2022/04/29 17:32:13;;;;;;;;;4.75;3.00;;;;;;;;5139815;27;11643;-69
2022/04/29 17:34:39;;;;;;;;;4.75;3.75;;;;;;;;5139643;27;10533;-70
2022/04/29 17:37:05;;;;;;;;;5.75;3.75;;;;;;;;5139812;27;11558;-71
2022/04/29 17:42:23;;;;;;;;;2.75;2.75;;;;;;;;5137718;27;11330;-68
2022/04/29 17:44:52;;;;;;;;;3.00;2.25;;;;;;;;5137221;27;11614;-72
2022/04/29 17:47:17;;;;;;;;;2.75;2.75;;;;;;;;5138421;27;10728;-71
2022/04/29 17:50:15;;;;;;;;;3.00;3.00;;;;;;;;5131804;27;11430;-69
2022/04/29 17:52:28;;;;;;;;;3.00;3.00;;;;;;;;5118920;28;11669;-68
2022/04/29 17:54:53;;;;;;;;;3.00;3.00;;;;;;;;5128357;27;10757;-69
2022/04/29 17:57:19;;;;;;;;;3.00;3.00;;;;;;;;5129910;27;8881;-69
2022/04/29 17:59:44;;;;;;;;;4.00;3.00;;;;;;;;5139913;27;8812;-69
2022/04/29 18:02:09;;;;;;;;;5.50;4.00;;;;;;;;5140125;27;8849;-70
2022/04/29 18:04:35;;;;;;;;;4.00;4.00;;;;;;;;5120127;27;10603;-69
2022/04/29 18:07:00;;;;;;;;;3.00;3.00;;;;;;;;5119238;27;9503;-70
2022/04/29 18:09:26;;;;;;;;;4.50;3.00;;;;;;;;5118393;27;8862;-70
2022/04/29 18:11:52;;;;;;;;;4.75;4.75;;;;;;;;5119511;27;8876;-73
2022/04/29 18:14:17;;;;;;;;;4.00;4.00;;;;;;;;5118923;27;10830;-70
2022/04/29 18:16:42;;;;;;;;;4.25;4.25;;;;;;;;5129088;27;9038;-72
2022/04/29 18:19:08;;;;;;;;;5.00;5.00;;;;;;;;5130022;27;9743;-72
2022/04/29 18:21:33;;;;;;;;;7.00;5.00;;;;;;;;5124208;27;11843;-73
2022/04/29 18:23:59;;;;;;;;;4.00;3.50;;;;;;;;5128002;27;10304;-72
2022/04/29 18:26:24;;;;;;;;;4.25;3.00;;;;;;;;5129190;27;11620;-72
2022/04/29 18:28:49;;;;;;;;;3.75;3.75;;;;;;;;5127115;27;10618;-70
2022/04/29 18:31:15;;;;;;;;;7.50;4.00;;;;;;;;5128399;27;11369;-71
2022/04/29 18:33:41;;;;;;;;;7.50;4.50;;;;;;;;5127734;27;12700;-70
2022/04/29 18:36:06;;;;;;;;;7.00;4.00;;;;;;;;5127973;27;8803;-69
2022/04/29 18:38:32;;;;;;;;;6.50;4.00;;;;;;;;5124484;27;11481;-68
2022/04/29 18:40:57;;;;;;;;;5.50;4.00;;;;;;;;5126290;27;9192;-71
2022/04/29 18:43:22;;;;;;;;;3.00;3.00;;;;;;;;5131600;27;8848;-70
2022/04/29 18:45:47;;;;;;;;;4.00;4.00;;;;;;;;5135603;27;10596;-70
2022/04/29 18:48:13;;;;;;;;;4.00;4.00;;;;;;;;5136367;27;8999;-70
2022/04/29 18:50:38;;;;;;;;;2.00;2.00;;;;;;;;5129329;27;8830;-69
2022/04/29 18:53:03;;;;;;;;;4.75;3.75;;;;;;;;5123914;27;9059;-71
2022/04/29 18:55:29;;;;;;;;;7.75;4.00;;;;;;;;5127163;27;11371;-69
2022/04/29 18:57:54;;;;;;;;;4.00;4.00;;;;;;;;5130890;27;11350;-68
2022/04/29 19:00:19;;;;;;;;;3.50;3.50;;;;;;;;5131934;27;8931;-66
2022/04/29 19:02:45;;;;;;;;;4.75;4.25;;;;;;;;5129780;27;11268;-65
2022/04/29 19:05:10;;;;;;;;;6.50;5.25;;;;;;;;5130743;27;11582;-66
2022/04/29 19:07:35;;;;;;;;;5.50;5.25;;;;;;;;5131036;27;10272;-66
2022/04/29 19:10:02;;;;;;;;;6.25;6.25;;;;;;;;5128909;27;8810;-68
2022/04/29 19:12:28;;;;;;;;;5.25;4.00;;;;;;;;5131585;27;10346;-67
2022/04/29 19:14:54;;;;;;;;;4.00;4.00;;;;;;;;5129790;27;11583;-67
2022/04/29 19:17:20;;;;;;;;;4.75;2.75;;;;;;;;5138599;27;11395;-67
2022/04/29 19:19:45;;;;;;;;;5.25;4.25;;;;;;;;5139920;27;11664;-66
2022/04/29 19:22:11;;;;;;;;;4.00;4.00;;;;;;;;5130977;27;11378;-67
2022/04/29 19:24:36;;;;;;;;;4.00;4.00;;;;;;;;5127219;27;14450;-66
2022/04/29 19:27:03;;;;;;;;;6.50;4.25;;;;;;;;5128971;27;8841;-66
2022/04/29 19:29:28;;;;;;;;;2.50;2.50;;;;;;;;5133136;27;11561;-66
2022/04/29 19:31:54;;;;;;;;;4.00;3.00;;;;;;;;5142117;27;11362;-66
2022/04/29 19:34:19;;;;;;;;;5.00;4.50;;;;;;;;5142033;27;11365;-66
2022/04/29 19:36:44;;;;;;;;;4.00;4.00;;;;;;;;5141566;27;11306;-66
2022/04/29 19:39:10;;;;;;;;;4.50;2.00;;;;;;;;5140099;27;14917;-66
2022/04/29 19:41:37;;;;;;;;;6.50;5.00;;;;;;;;5141291;27;9485;-66
2022/04/29 19:44:02;;;;;;;;;4.75;4.00;;;;;;;;5138775;27;9031;-67
2022/04/29 19:46:28;;;;;;;;;14.25;12.00;;;;;;;;5126716;27;11425;-64
2022/04/29 19:48:53;;;;;;;;;22.50;19.00;;;;;;;;5129149;27;23520;-66
2022/04/29 19:51:19;;;;;;;;;2.50;2.00;;;;;;;;5130151;27;12705;-65
2022/04/29 19:53:47;;;;;;;;;6.00;5.50;;;;;;;;5130760;27;22690;-65
2022/04/29 19:56:14;;;;;;;;;6.75;6.75;;;;;;;;5135496;27;11571;-67
2022/04/29 20:04:08;;;;;;;;;9.25;6.00;;;;;;;;5132943;27;11498;-65
2022/04/29 20:06:33;;;;;;;;;4.00;4.00;;;;;;;;5120777;27;11443;-65
2022/04/29 20:08:59;;;;;;;;;6.00;3.25;;;;;;;;5120677;27;12094;-65
2022/04/29 20:11:24;;;;;;;;;2.00;2.00;;;;;;;;5118559;27;11276;-66
2022/04/29 20:13:51;;;;;;;;;6.00;6.00;;;;;;;;5118470;27;11254;-65
2022/04/29 20:16:16;;;;;;;;;3.50;3.50;;;;;;;;5116876;28;8846;-66
2022/04/29 20:18:41;;;;;;;;;4.00;4.00;;;;;;;;5118528;27;11417;-65
2022/04/29 20:21:07;;;;;;;;;5.50;5.50;;;;;;;;5118905;27;11691;-67
2022/04/29 20:23:33;;;;;;;;;3.75;3.75;;;;;;;;5117089;28;11330;-66
2022/04/29 20:25:59;;;;;;;;;6.00;4.00;;;;;;;;5119633;27;11414;-66
2022/04/29 20:28:24;;;;;;;;;5.00;5.00;;;;;;;;5124245;27;11424;-65
2022/04/29 20:30:50;;;;;;;;;3.00;3.00;;;;;;;;5130370;27;8951;-66
2022/04/29 20:33:21;;;;;;;;;7.00;3.75;;;;;;;;5138248;27;8788;-68
2022/04/29 20:35:46;;;;;;;;;4.00;3.25;;;;;;;;5138587;27;11415;-67
2022/04/29 20:38:12;;;;;;;;;8.00;5.50;;;;;;;;5137756;27;11524;-68
2022/04/29 20:46:07;;;;;;;;;4.00;4.00;;;;;;;;5139906;27;12317;-69
2022/04/29 20:48:32;;;;;;;;;6.00;6.00;;;;;;;;5140334;27;11587;-68
2022/04/29 20:50:58;;;;;;;;;2.75;2.75;;;;;;;;5140366;27;11387;-68
2022/04/29 20:53:23;;;;;;;;;5.50;4.00;;;;;;;;5140854;27;12568;-68
2022/04/29 20:55:48;;;;;;;;;3.75;3.75;;;;;;;;5140330;27;11278;-66
2022/04/29 20:58:14;;;;;;;;;4.00;3.75;;;;;;;;5140318;27;11366;-67
2022/04/29 21:00:40;;;;;;;;;3.00;3.00;;;;;;;;5134998;27;10213;-68
2022/04/29 21:03:05;;;;;;;;;2.50;2.50;;;;;;;;5119682;27;11397;-67
2022/04/29 21:05:30;;;;;;;;;3.50;3.50;;;;;;;;5118024;28;14721;-67
2022/04/29 21:07:59;;;;;;;;;5.00;3.50;;;;;;;;5119807;27;8822;-67
2022/04/29 21:10:25;;;;;;;;;5.00;4.50;;;;;;;;5117445;28;10983;-67
2022/04/29 21:12:51;;;;;;;;;3.00;3.00;;;;;;;;5118886;27;11517;-66
2022/04/29 21:15:16;;;;;;;;;3.25;3.25;;;;;;;;5119098;27;11512;-66
2022/04/29 21:17:43;;;;;;;;;3.50;3.50;;;;;;;;5118940;27;8880;-64
2022/04/29 21:20:11;;;;;;;;;3.25;3.25;;;;;;;;5119286;27;8854;-66
2022/04/29 21:22:36;;;;;;;;;3.00;3.00;;;;;;;;5119297;27;11384;-65
2022/04/29 21:25:02;;;;;;;;;3.00;2.75;;;;;;;;5118882;27;11391;-66
2022/04/29 21:27:27;;;;;;;;;3.25;3.25;;;;;;;;5117348;28;10652;-67
2022/04/29 21:32:37;;;;;;;;;5.50;3.00;;;;;;;;5130030;27;8800;-66
2022/04/29 21:35:02;;;;;;;;;4.00;3.75;;;;;;;;5119546;27;11998;-66
2022/04/29 21:37:28;;;;;;;;;5.25;3.00;;;;;;;;5119625;27;11343;-66
2022/04/29 21:39:53;;;;;;;;;3.00;3.00;;;;;;;;5118009;28;13649;-66
2022/04/29 21:42:18;;;;;;;;;7.00;3.50;;;;;;;;5117737;28;9234;-66
2022/04/29 21:44:44;;;;;;;;;5.50;2.75;;;;;;;;5119944;28;12591;-68
2022/04/29 21:47:09;;;;;;;;;4.00;3.00;;;;;;;;5117691;28;13453;-66
2022/04/29 21:49:34;;;;;;;;;3.00;3.00;;;;;;;;5119173;27;11288;-65
2022/04/29 21:52:00;;;;;;;;;3.50;3.50;;;;;;;;5120347;28;9526;-66
2022/04/29 21:54:26;;;;;;;;;3.00;3.00;;;;;;;;5119893;27;8933;-66
2022/04/29 21:56:51;;;;;;;;;3.00;3.00;;;;;;;;5118195;28;8960;-66
2022/04/29 21:59:17;;;;;;;;;6.50;4.00;;;;;;;;5119963;27;11388;-67
2022/04/29 22:01:42;;;;;;;;;6.50;4.00;;;;;;;;5119212;27;10312;-67
2022/04/29 22:04:07;;;;;;;;;17.25;14.50;;;;;;;;5119478;27;8775;-65
2022/04/29 22:06:32;;;;;;;;;24.25;17.25;;;;;;;;5116805;28;24261;-66
2022/04/29 22:08:58;;;;;;;;;5.00;3.75;;;;;;;;5118918;27;13745;-66
2022/04/29 22:11:24;;;;;;;;;4.00;4.00;;;;;;;;5118646;27;22680;-65
2022/04/29 22:13:49;;;;;;;;;4.00;2.75;;;;;;;;5119228;27;11488;-66
2022/04/29 22:16:16;;;;;;;;;5.50;5.50;;;;;;;;5119617;27;8863;-66
2022/04/29 22:18:41;;;;;;;;;6.00;3.50;;;;;;;;5118798;27;11629;-66
2022/04/29 22:21:07;;;;;;;;;3.25;3.25;;;;;;;;5119236;27;11430;-66
2022/04/29 22:23:32;;;;;;;;;7.00;3.00;;;;;;;;5118514;27;11536;-65
2022/04/29 22:25:58;;;;;;;;;4.50;4.00;;;;;;;;5118628;27;11660;-67
2022/04/29 22:28:23;;;;;;;;;6.00;6.00;;;;;;;;5118953;27;10285;-66
2022/04/29 22:30:48;;;;;;;;;3.25;3.25;;;;;;;;5119229;27;11409;-67
2022/04/29 22:33:14;;;;;;;;;5.00;5.00;;;;;;;;5120306;28;11790;-66
2022/04/29 22:35:39;;;;;;;;;7.00;7.00;;;;;;;;5122233;27;11299;-66
2022/04/29 22:38:04;;;;;;;;;7.50;6.75;;;;;;;;5122209;27;8779;-65
2022/04/29 22:40:30;;;;;;;;;10.50;10.50;;;;;;;;5122831;27;10264;-66
2022/04/29 22:42:55;;;;;;;;;13.50;11.25;;;;;;;;5122370;27;22376;-66
2022/04/29 22:45:22;;;;;;;;;13.00;9.25;;;;;;;;5122429;27;11543;-65
2022/04/29 22:47:47;;;;;;;;;11.00;9.25;;;;;;;;5122022;27;21463;-65
2022/04/29 22:50:13;;;;;;;;;7.25;6.50;;;;;;;;5121788;27;11475;-65
2022/04/29 22:52:39;;;;;;;;;7.50;7.50;;;;;;;;5121394;27;21929;-66
2022/04/29 22:55:05;;;;;;;;;7.75;7.00;;;;;;;;5122439;27;9527;-65
2022/04/29 22:57:30;;;;;;;;;8.00;8.00;;;;;;;;5122803;27;11533;-65
2022/04/29 22:59:56;;;;;;;;;6.00;6.00;;;;;;;;5122371;27;10549;-65
2022/04/29 23:02:21;;;;;;;;;7.50;5.00;;;;;;;;5120766;28;10425;-66
2022/04/29 23:04:46;;;;;;;;;7.75;5.00;;;;;;;;5121873;27;10442;-66
2022/04/29 23:07:14;;;;;;;;;8.50;6.25;;;;;;;;5122615;27;8787;-66